Terminal Aerodrome Forecast
Issued by NWS Mobile, AL

Home | Current Version | Previous Version | Text Only | Print | Product List | Glossary On
Versions: 1 2 3 4 5 6 7 8 9 10 11 12 13 14 15 16 17 18 19 20 21 22 23 24 25 26 27 28
000
FTUS44 KMOB 111100
TAFPNS
TAF
KPNS 111133Z 1112/1212 34003KT P6SM FEW035 BKN150
     FM111500 33005KT P6SM SCT035 SCT150
     FM111800 19007KT P6SM VCTS SCT040CB
     FM120100 VRB03KT P6SM SCT050 SCT250=

USA.gov is the U.S. government's official web portal to all federal, state and local government web resources and services.